createdAt,value
2022-12-27T00:00:10.724Z,98714.11
2022-12-27T00:03:02.153Z,98707.42
2022-12-27T00:05:31.373Z,98705.48
2022-12-27T00:07:59.376Z,98694.51
2022-12-27T00:10:28.538Z,98690.09
2022-12-27T00:12:56.809Z,98689.48
2022-12-27T00:15:24.876Z,98694.12
2022-12-27T00:17:53.051Z,98694.34
2022-12-27T00:20:21.393Z,98688.51
2022-12-27T00:22:49.428Z,98685.92
2022-12-27T00:25:17.585Z,98691.98
2022-12-27T00:27:45.667Z,98698.91
2022-12-27T00:30:13.828Z,98708.46
2022-12-27T00:32:42.033Z,98705.76
2022-12-27T00:35:10.678Z,98703.90
2022-12-27T00:37:38.902Z,98702.87
2022-12-27T00:40:07.644Z,98718.86
2022-12-27T00:42:35.948Z,98732.60
2022-12-27T00:45:05.804Z,98741.60
2022-12-27T00:47:33.997Z,98746.90
2022-12-27T00:50:02.132Z,98752.63
2022-12-27T00:52:31.232Z,98752.49
2022-12-27T00:54:59.465Z,98756.02
2022-12-27T00:57:27.637Z,98754.05
2022-12-27T00:59:55.632Z,98764.73
2022-12-27T01:02:23.758Z,98767.00
2022-12-27T01:04:53.847Z,98757.56
2022-12-27T01:07:21.907Z,98758.67
2022-12-27T01:09:50.256Z,98753.25
2022-12-27T01:12:18.577Z,98754.02
2022-12-27T01:14:46.660Z,98751.77
2022-12-27T01:17:15.156Z,98751.94
2022-12-27T01:19:43.390Z,98749.63
2022-12-27T01:22:11.402Z,98751.52
2022-12-27T01:24:40.108Z,98744.67
2022-12-27T01:27:08.360Z,98742.00
2022-12-27T01:29:36.343Z,98740.89
2022-12-27T01:32:04.911Z,98754.37
2022-12-27T01:34:33.271Z,98759.73
2022-12-27T01:37:01.577Z,98759.89
2022-12-27T01:39:30.130Z,98761.30
2022-12-27T01:42:16.735Z,98764.63
2022-12-27T01:44:51.598Z,98763.94
2022-12-27T01:47:33.195Z,98773.58
2022-12-27T01:50:08.716Z,98783.55
2022-12-27T01:52:44.545Z,98784.98
2022-12-27T01:55:22.111Z,98763.64
2022-12-27T01:57:53.447Z,98761.09
2022-12-27T02:00:22.903Z,98767.21
2022-12-27T02:03:17.144Z,98772.83
2022-12-27T02:05:45.766Z,98771.16
2022-12-27T02:08:22.411Z,98777.02
2022-12-27T02:10:51.390Z,98778.58
2022-12-27T02:13:20.135Z,98788.63
2022-12-27T02:15:48.197Z,98791.38
2022-12-27T02:18:16.854Z,98799.61
2022-12-27T02:21:16.992Z,98802.10
2022-12-27T02:24:13.485Z,98803.95
2022-12-27T02:27:05.057Z,98808.02
2022-12-27T02:29:40.165Z,98809.73
2022-12-27T02:32:20.309Z,98812.58
2022-12-27T02:35:00.454Z,98816.05
2022-12-27T02:37:31.921Z,98814.98
2022-12-27T02:40:22.878Z,98815.58
2022-12-27T02:43:10.892Z,98825.05
2022-12-27T02:46:05.215Z,98828.39
2022-12-27T02:48:51.803Z,98834.22
2022-12-27T02:52:33.011Z,98841.84
2022-12-27T02:55:16.173Z,98844.25
2022-12-27T02:57:50.631Z,98847.95
2022-12-27T03:00:43.033Z,98850.19
2022-12-27T03:03:39.653Z,98858.91
2022-12-27T03:06:35.281Z,98860.13
2022-12-27T03:09:12.430Z,98859.59
2022-12-27T03:12:07.234Z,98868.05
2022-12-27T03:15:06.783Z,98871.77
2022-12-27T03:17:44.614Z,98881.82
2022-12-27T03:20:36.805Z,98891.16
2022-12-27T03:23:23.943Z,98901.06
2022-12-27T03:25:55.653Z,98905.80
2022-12-27T03:28:47.486Z,98896.05
2022-12-27T03:31:42.440Z,98894.96
2022-12-27T03:34:32.250Z,98909.23
2022-12-27T03:37:24.453Z,98915.02
2022-12-27T03:39:58.938Z,98922.10
2022-12-27T03:42:49.932Z,98931.33
2022-12-27T03:45:21.859Z,98952.75
2022-12-27T03:47:56.256Z,98971.65
2022-12-27T03:50:40.276Z,98975.30
2022-12-27T03:53:19.292Z,98985.04
2022-12-27T03:55:48.025Z,98992.42
2022-12-27T03:58:16.329Z,98999.73
2022-12-27T04:00:44.627Z,99002.06
2022-12-27T04:03:12.813Z,99003.85
2022-12-27T04:05:40.925Z,99011.64
2022-12-27T04:08:27.861Z,99010.77
2022-12-27T04:11:14.713Z,99014.05
2022-12-27T04:14:01.306Z,99030.98
2022-12-27T04:16:48.664Z,99025.79
2022-12-27T04:19:35.536Z,99037.09
2022-12-27T04:22:22.273Z,99041.41
2022-12-27T04:25:11.355Z,99049.95
2022-12-27T04:27:58.005Z,99059.48
2022-12-27T04:30:44.573Z,99063.58
2022-12-27T04:33:31.475Z,99065.36
2022-12-27T04:36:05.834Z,99060.69
2022-12-27T04:38:34.536Z,99075.91
2022-12-27T04:41:21.186Z,99082.30
2022-12-27T04:44:08.113Z,99100.39
2022-12-27T04:46:55.801Z,99110.66
2022-12-27T04:49:45.254Z,99108.50
2022-12-27T04:52:42.357Z,99118.05
2022-12-27T04:55:24.362Z,99128.71
2022-12-27T04:57:52.937Z,99134.80
2022-12-27T05:00:41.593Z,99129.48
2022-12-27T05:03:14.232Z,99136.89
2022-12-27T05:05:43.932Z,99133.35
2022-12-27T05:08:32.530Z,99132.95
2022-12-27T05:11:20.355Z,99125.80
2022-12-27T05:14:00.629Z,99125.61
2022-12-27T05:16:35.644Z,99138.57
2022-12-27T05:19:05.016Z,99137.01
2022-12-27T05:21:37.862Z,99134.48
2022-12-27T05:24:25.380Z,99129.16
2022-12-27T05:26:56.419Z,99144.45
2022-12-27T05:29:24.410Z,99143.95
2022-12-27T05:31:53.194Z,99152.73
2022-12-27T05:34:21.447Z,99155.45
2022-12-27T05:36:49.500Z,99164.58
2022-12-27T05:39:17.568Z,99166.40
2022-12-27T05:41:45.917Z,99168.60
2022-12-27T05:44:13.953Z,99175.64
2022-12-27T05:46:42.117Z,99182.39
2022-12-27T05:49:10.492Z,99189.51
2022-12-27T05:51:38.532Z,99198.44
2022-12-27T05:54:06.906Z,99193.41
2022-12-27T05:56:37.328Z,99189.05
2022-12-27T05:59:05.730Z,99190.71
2022-12-27T06:01:34.595Z,99203.38
2022-12-27T06:04:02.946Z,99203.13
2022-12-27T06:06:30.949Z,99204.92
2022-12-27T06:08:59.262Z,99203.33
2022-12-27T06:11:27.439Z,99201.47
2022-12-27T06:13:56.332Z,99202.69
2022-12-27T06:16:25.168Z,99208.45
2022-12-27T06:18:53.475Z,99215.38
2022-12-27T06:21:21.706Z,99218.49
2022-12-27T06:23:50.424Z,99224.30
2022-12-27T06:26:24.671Z,99234.03
2022-12-27T06:28:55.614Z,99243.80
2022-12-27T06:31:24.929Z,99251.33
2022-12-27T06:33:53.137Z,99260.66
2022-12-27T06:36:24.880Z,99271.93
2022-12-27T06:38:53.368Z,99277.77
2022-12-27T06:41:21.375Z,99282.75
2022-12-27T06:43:55.320Z,99289.27
2022-12-27T06:46:26.959Z,99289.35
2022-12-27T06:48:55.253Z,99292.58
2022-12-27T06:51:23.422Z,99295.95
2022-12-27T06:53:52.132Z,99299.52
2022-12-27T06:56:21.694Z,99301.31
2022-12-27T06:58:51.497Z,99305.87
2022-12-27T07:01:25.690Z,99307.56
2022-12-27T07:03:57.378Z,99311.34
2022-12-27T07:06:28.137Z,99315.29
2022-12-27T07:08:57.689Z,99328.25
2022-12-27T07:11:26.515Z,99331.52
2022-12-27T07:13:56.002Z,99334.27
2022-12-27T07:16:26.177Z,99339.83
2022-12-27T07:18:55.616Z,99343.89
2022-12-27T07:21:27.120Z,99346.83
2022-12-27T07:23:56.666Z,99352.27
2022-12-27T07:26:28.626Z,99360.17
2022-12-27T07:28:59.210Z,99365.48
2022-12-27T07:31:30.449Z,99369.92
2022-12-27T07:34:00.524Z,99373.73
2022-12-27T07:36:33.312Z,99370.64
2022-12-27T07:39:02.193Z,99375.17
2022-12-27T07:41:30.405Z,99372.90
2022-12-27T07:44:02.337Z,99371.45
2022-12-27T07:46:30.649Z,99378.50
2022-12-27T07:48:59.222Z,99384.46
2022-12-27T07:51:27.890Z,99383.96
2022-12-27T07:53:56.644Z,99386.52
2022-12-27T07:56:27.331Z,99390.58
2022-12-27T07:58:57.580Z,99398.60
2022-12-27T08:01:27.530Z,99401.42
2022-12-27T08:03:56.990Z,99403.80
2022-12-27T08:06:31.982Z,99409.36
2022-12-27T08:09:05.216Z,99412.27
2022-12-27T08:11:33.575Z,99411.65
2022-12-27T08:14:01.878Z,99419.11
2022-12-27T08:16:30.645Z,99423.48
2022-12-27T08:19:02.053Z,99428.69
2022-12-27T08:21:34.607Z,99428.98
2022-12-27T08:24:02.728Z,99437.27
2022-12-27T08:26:30.758Z,99438.48
2022-12-27T08:28:59.047Z,99443.24
2022-12-27T08:31:27.325Z,99444.19
2022-12-27T08:33:58.702Z,99446.63
2022-12-27T08:36:57.202Z,99451.11
2022-12-27T08:39:15.262Z,99450.78
2022-12-27T08:41:43.609Z,99451.96
2022-12-27T08:44:12.347Z,99455.11
2022-12-27T08:46:41.111Z,99461.96
2022-12-27T08:49:09.274Z,99467.91
2022-12-27T08:51:41.215Z,99475.77
2022-12-27T08:54:09.914Z,99476.72
2022-12-27T08:56:38.208Z,99482.45
2022-12-27T08:59:06.351Z,99489.47
2022-12-27T09:01:34.501Z,99484.17
2022-12-27T09:04:02.742Z,99485.96
2022-12-27T09:06:30.939Z,99494.73
2022-12-27T09:08:59.802Z,99499.20
2022-12-27T09:11:30.829Z,99502.09
2022-12-27T09:14:01.162Z,99504.05
2022-12-27T09:16:30.118Z,99508.27
2022-12-27T09:18:59.697Z,99507.86
2022-12-27T09:21:30.038Z,99506.73
2022-12-27T09:23:58.918Z,99505.60
2022-12-27T09:26:30.129Z,99503.85
2022-12-27T09:28:59.399Z,99502.50
2022-12-27T09:31:28.303Z,99501.92
2022-12-27T09:33:56.941Z,99498.46
2022-12-27T09:36:28.226Z,99501.61
2022-12-27T09:38:58.093Z,99498.81
2022-12-27T09:44:49.025Z,99499.25
2022-12-27T09:47:34.200Z,99508.19
2022-12-27T09:50:11.885Z,99517.34
2022-12-27T09:53:26.693Z,99520.89
2022-12-27T09:55:58.085Z,99519.85
2022-12-27T09:58:46.949Z,99516.05
2022-12-27T10:01:28.373Z,99516.13
2022-12-27T10:03:56.583Z,99518.70
2022-12-27T10:06:32.935Z,99522.17
2022-12-27T10:09:33.469Z,99522.38
2022-12-27T10:12:15.208Z,99517.05
2022-12-27T10:15:20.044Z,99514.27
2022-12-27T10:18:03.008Z,99519.59
2022-12-27T10:20:47.945Z,99521.74
2022-12-27T10:23:20.425Z,99528.80
2022-12-27T10:25:56.259Z,99528.92
2022-12-27T10:28:33.449Z,99528.48
2022-12-27T10:31:03.886Z,99531.23
2022-12-27T10:33:34.410Z,99535.50
2022-12-27T10:36:10.427Z,99536.94
2022-12-27T10:38:38.646Z,99544.19
2022-12-27T10:41:21.880Z,99543.08
2022-12-27T10:43:53.247Z,99545.86
2022-12-27T10:46:32.170Z,99542.97
2022-12-27T10:49:21.582Z,99544.91
2022-12-27T10:51:52.920Z,99540.48
2022-12-27T10:54:24.248Z,99539.86
2022-12-27T10:56:53.048Z,99543.40
2022-12-27T10:59:22.592Z,99539.97
2022-12-27T11:02:00.227Z,99542.86
2022-12-27T11:04:30.273Z,99542.38
2022-12-27T11:07:02.183Z,99533.17
2022-12-27T11:09:38.462Z,99537.14
2022-12-27T11:12:24.639Z,99534.77
2022-12-27T11:15:06.842Z,99527.63
2022-12-27T11:17:45.098Z,99528.11
2022-12-27T11:20:23.547Z,99527.88
2022-12-27T11:23:13.738Z,99533.89
2022-12-27T11:25:54.151Z,99533.08
2022-12-27T11:28:40.539Z,99540.60
2022-12-27T11:31:13.266Z,99545.33
2022-12-27T11:33:50.242Z,99546.04
2022-12-27T11:36:32.099Z,99549.02
2022-12-27T11:39:01.266Z,99555.13
2022-12-27T11:41:37.503Z,99555.27
2022-12-27T11:44:22.422Z,99549.95
2022-12-27T11:46:59.223Z,99547.02
2022-12-27T11:49:35.907Z,99552.20
2022-12-27T11:52:55.467Z,99548.62
2022-12-27T11:55:40.140Z,99548.25
2022-12-27T11:58:18.586Z,99551.50
2022-12-27T12:01:03.648Z,99555.32
2022-12-27T12:03:46.114Z,99550.20
2022-12-27T12:06:34.569Z,99548.18
2022-12-27T12:09:18.480Z,99544.19
2022-12-27T12:11:54.679Z,99544.56
2022-12-27T12:14:45.755Z,99540.58
2022-12-27T12:17:19.558Z,99541.81
2022-12-27T12:19:59.017Z,99538.83
2022-12-27T12:23:04.620Z,99542.63
2022-12-27T12:25:51.500Z,99544.68
2022-12-27T12:28:57.028Z,99540.28
2022-12-27T12:31:39.045Z,99543.02
2022-12-27T12:34:25.442Z,99541.35
2022-12-27T12:37:26.595Z,99541.95
2022-12-27T12:40:16.593Z,99545.35
2022-12-27T12:43:06.468Z,99554.61
2022-12-27T12:45:50.126Z,99557.44
2022-12-27T12:48:25.612Z,99560.69
2022-12-27T12:51:08.977Z,99564.10
2022-12-27T12:53:49.233Z,99556.19
2022-12-27T12:56:50.230Z,99546.63
2022-12-27T12:59:50.288Z,99549.38
2022-12-27T13:03:03.944Z,99550.64
2022-12-27T13:05:44.473Z,99560.42
2022-12-27T13:08:41.535Z,99561.65
2022-12-27T13:11:28.087Z,99564.17
2022-12-27T13:14:14.545Z,99554.84
2022-12-27T13:17:15.788Z,99565.91
2022-12-27T13:19:54.904Z,99568.23
2022-12-27T13:22:44.919Z,99566.28
2022-12-27T13:25:34.456Z,99572.83
2022-12-27T13:28:17.759Z,99570.14
2022-12-27T13:31:22.316Z,99566.71
2022-12-27T13:34:18.476Z,99571.77
2022-12-27T13:37:05.041Z,99578.47
2022-12-27T13:39:42.680Z,99585.59
2022-12-27T13:42:13.777Z,99579.27
2022-12-27T13:44:54.329Z,99576.41
2022-12-27T13:47:34.780Z,99583.38
2022-12-27T13:50:30.615Z,99584.54
2022-12-27T13:53:18.567Z,99582.13
2022-12-27T13:56:51.459Z,99589.65
2022-12-27T13:59:20.036Z,99590.24
2022-12-27T14:02:15.816Z,99595.78
2022-12-27T14:05:10.019Z,99592.80
2022-12-27T14:07:52.845Z,99595.25
2022-12-27T14:10:41.826Z,99595.44
2022-12-27T14:13:11.797Z,99603.48
2022-12-27T14:15:53.254Z,99600.95
2022-12-27T14:18:35.351Z,99598.30
2022-12-27T14:21:03.766Z,99605.88
2022-12-27T14:24:13.579Z,99610.29
2022-12-27T14:27:03.129Z,99609.92
2022-12-27T14:29:31.129Z,99604.19
2022-12-27T14:32:36.318Z,99607.73
2022-12-27T14:35:47.355Z,99611.31
2022-12-27T14:38:24.601Z,99614.20
2022-12-27T14:41:12.778Z,99623.30
2022-12-27T14:44:18.198Z,99620.29
2022-12-27T14:47:23.881Z,99623.06
2022-12-27T14:50:10.567Z,99628.50
2022-12-27T14:52:48.399Z,99629.34
2022-12-27T14:55:22.388Z,99630.85
2022-12-27T14:58:31.619Z,99631.23
2022-12-27T15:01:47.915Z,99633.60
2022-12-27T15:04:36.567Z,99638.15
2022-12-27T15:07:16.797Z,99641.92
2022-12-27T15:10:03.497Z,99650.81
2022-12-27T15:12:43.838Z,99650.67
2022-12-27T15:15:48.075Z,99652.55
2022-12-27T15:18:42.274Z,99647.80
2022-12-27T15:21:48.180Z,99648.89
2022-12-27T15:24:30.082Z,99650.02
2022-12-27T15:27:22.729Z,99651.30
2022-12-27T15:30:02.769Z,99656.75
2022-12-27T15:33:00.053Z,99665.66
2022-12-27T15:35:33.962Z,99663.23
2022-12-27T15:38:11.811Z,99657.39
2022-12-27T15:40:48.292Z,99653.82
2022-12-27T15:43:27.934Z,99651.59
2022-12-27T15:46:17.038Z,99661.65
2022-12-27T15:48:54.013Z,99665.16
2022-12-27T15:51:41.097Z,99666.98
2022-12-27T15:54:30.727Z,99670.49
2022-12-27T15:57:11.131Z,99678.38
2022-12-27T16:00:05.893Z,99679.79
2022-12-27T16:02:43.840Z,99685.02
2022-12-27T16:05:41.095Z,99703.91
2022-12-27T16:08:09.399Z,99705.60
2022-12-27T16:10:40.408Z,99701.26
2022-12-27T16:13:11.845Z,99702.90
2022-12-27T16:15:43.618Z,99699.48
2022-12-27T16:18:11.709Z,99701.17
2022-12-27T16:20:40.222Z,99697.35
2022-12-27T16:23:11.810Z,99694.92
2022-12-27T16:25:41.571Z,99696.32
2022-12-27T16:28:15.806Z,99695.31
2022-12-27T16:30:48.882Z,99697.81
2022-12-27T16:33:26.346Z,99692.55
2022-12-27T16:36:15.732Z,99691.27
2022-12-27T16:38:58.206Z,99701.57
2022-12-27T16:41:32.305Z,99704.77
2022-12-27T16:44:00.452Z,99713.15
2022-12-27T16:46:56.966Z,99712.06
2022-12-27T16:49:37.680Z,99710.67
2022-12-27T16:52:24.308Z,99710.43
2022-12-27T16:55:05.917Z,99710.81
2022-12-27T16:57:40.965Z,99713.78
2022-12-27T17:00:31.144Z,99715.40
2022-12-27T17:03:22.402Z,99724.47
2022-12-27T17:06:30.676Z,99727.06
2022-12-27T17:08:40.029Z,99730.57
2022-12-27T17:11:29.636Z,99730.58
2022-12-27T17:14:20.588Z,99729.18
2022-12-27T17:16:51.978Z,99729.73
2022-12-27T17:19:33.772Z,99731.44
2022-12-27T17:22:06.995Z,99733.52
2022-12-27T17:24:35.986Z,99734.61
2022-12-27T17:27:13.346Z,99735.00
2022-12-27T17:30:05.804Z,99737.45
2022-12-27T17:33:02.733Z,99735.47
2022-12-27T17:36:02.126Z,99740.55
2022-12-27T17:38:45.865Z,99743.69
2022-12-27T17:41:47.819Z,99747.91
2022-12-27T17:44:38.110Z,99752.18
2022-12-27T17:47:22.574Z,99757.12
2022-12-27T17:49:51.688Z,99760.95
2022-12-27T17:52:44.312Z,99758.48
2022-12-27T17:55:44.857Z,99762.70
2022-12-27T17:58:17.005Z,99765.44
2022-12-27T18:00:57.998Z,99762.41
2022-12-27T18:03:36.095Z,99768.41
2022-12-27T18:06:05.090Z,99767.94
2022-12-27T18:08:34.317Z,99770.99
2022-12-27T18:11:04.812Z,99775.70
2022-12-27T18:13:37.633Z,99773.91
2022-12-27T18:16:23.138Z,99773.75
2022-12-27T18:18:53.873Z,99770.39
2022-12-27T18:21:25.379Z,99773.98
2022-12-27T18:23:54.683Z,99777.23
2022-12-27T18:26:36.874Z,99778.16
2022-12-27T18:29:06.569Z,99776.61
2022-12-27T18:31:39.559Z,99776.57
2022-12-27T18:34:23.510Z,99774.89
2022-12-27T18:36:59.172Z,99769.65
2022-12-27T18:39:34.227Z,99773.45
2022-12-27T18:42:11.934Z,99773.27
2022-12-27T18:44:47.061Z,99779.59
2022-12-27T18:47:20.376Z,99784.05
2022-12-27T18:49:58.043Z,99785.88
2022-12-27T18:52:32.894Z,99789.95
2022-12-27T18:55:18.766Z,99788.64
2022-12-27T18:57:48.384Z,99788.63
2022-12-27T19:00:26.516Z,99789.91
2022-12-27T19:03:13.644Z,99793.16
2022-12-27T19:05:58.809Z,99792.64
2022-12-27T19:08:33.854Z,99789.60
2022-12-27T19:11:02.778Z,99795.29
2022-12-27T19:13:43.227Z,99795.17
2022-12-27T19:16:22.663Z,99792.92
2022-12-27T19:18:54.895Z,99793.44
2022-12-27T19:21:36.123Z,99797.65
2022-12-27T19:24:28.975Z,99802.08
2022-12-27T19:27:02.846Z,99807.43
2022-12-27T19:29:37.860Z,99808.77
2022-12-27T19:32:10.020Z,99811.46
2022-12-27T19:34:44.262Z,99811.55
2022-12-27T19:37:12.950Z,99814.34
2022-12-27T19:39:41.807Z,99811.91
2022-12-27T19:42:17.521Z,99808.73
2022-12-27T19:44:45.844Z,99807.41
2022-12-27T19:47:14.453Z,99807.91
2022-12-27T19:49:44.545Z,99806.59
2022-12-27T19:52:22.711Z,99815.26
2022-12-27T19:54:52.883Z,99816.38
2022-12-27T19:57:22.464Z,99818.60
2022-12-27T19:59:50.556Z,99824.50
2022-12-27T20:02:18.692Z,99829.36
2022-12-27T20:04:47.049Z,99827.59
2022-12-27T20:07:25.706Z,99832.41
2022-12-27T20:09:54.112Z,99833.59
2022-12-27T20:12:22.433Z,99829.59
2022-12-27T20:14:50.681Z,99840.84
2022-12-27T20:17:18.992Z,99844.63
2022-12-27T20:19:47.225Z,99847.30
2022-12-27T20:22:15.322Z,99843.42
2022-12-27T20:24:43.981Z,99843.33
2022-12-27T20:27:12.130Z,99838.09
2022-12-27T20:29:40.111Z,99836.98
2022-12-27T20:32:08.489Z,99833.38
2022-12-27T20:34:36.836Z,99831.67
2022-12-27T20:37:05.188Z,99830.09
2022-12-27T20:39:34.363Z,99828.13
2022-12-27T20:42:02.590Z,99828.34
2022-12-27T20:44:30.672Z,99832.04
2022-12-27T20:46:58.890Z,99834.02
2022-12-27T20:49:27.156Z,99829.33
2022-12-27T20:51:55.836Z,99833.80
2022-12-27T20:54:24.775Z,99835.60
2022-12-27T20:56:52.862Z,99835.00
2022-12-27T20:59:20.951Z,99832.66
2022-12-27T21:01:54.795Z,99831.79
2022-12-27T21:04:26.926Z,99830.60
2022-12-27T21:06:55.109Z,99828.70
2022-12-27T21:09:23.746Z,99828.21
2022-12-27T21:11:55.878Z,99833.70
2022-12-27T21:14:24.065Z,99830.48
2022-12-27T21:16:52.115Z,99830.39
2022-12-27T21:19:20.203Z,99830.04
2022-12-27T21:21:48.314Z,99836.05
2022-12-27T21:24:16.460Z,99831.58
2022-12-27T21:26:44.635Z,99834.51
2022-12-27T21:29:14.477Z,99837.67
2022-12-27T21:31:42.813Z,99836.30
2022-12-27T21:34:10.896Z,99841.98
2022-12-27T21:36:39.163Z,99845.10
2022-12-27T21:39:07.847Z,99851.54
2022-12-27T21:41:38.847Z,99855.41
2022-12-27T21:44:07.392Z,99858.27
2022-12-27T21:46:38.452Z,99852.70
2022-12-27T21:49:12.450Z,99848.35
2022-12-27T21:51:42.157Z,99848.35
2022-12-27T21:54:11.424Z,99852.96
2022-12-27T21:56:40.298Z,99851.41
2022-12-27T21:59:11.199Z,99848.91
2022-12-27T22:01:51.976Z,99851.52
2022-12-27T22:04:21.671Z,99852.09
2022-12-27T22:06:50.197Z,99851.17
2022-12-27T22:09:19.672Z,99857.95
2022-12-27T22:11:49.013Z,99852.58
2022-12-27T22:14:21.788Z,99851.79
2022-12-27T22:16:53.657Z,99853.08
2022-12-27T22:19:21.675Z,99851.29
2022-12-27T22:21:49.813Z,99850.56
2022-12-27T22:24:20.014Z,99852.13
2022-12-27T22:26:50.346Z,99850.88
2022-12-27T22:29:18.623Z,99857.14
2022-12-27T22:31:47.216Z,99863.27
2022-12-27T22:34:15.283Z,99861.95
2022-12-27T22:36:43.836Z,99866.69
2022-12-27T22:39:12.120Z,99865.11
2022-12-27T22:41:40.145Z,99864.95
2022-12-27T22:44:11.869Z,99863.34
2022-12-27T22:49:29.416Z,99859.58
2022-12-27T22:51:57.724Z,99859.63
2022-12-27T22:55:05.757Z,99862.77
2022-12-27T22:57:13.951Z,99862.10
2022-12-27T22:59:41.982Z,99868.20
2022-12-27T23:02:10.120Z,99868.04
2022-12-27T23:04:38.497Z,99867.37
2022-12-27T23:07:06.611Z,99865.73
2022-12-27T23:09:42.605Z,99864.07
2022-12-27T23:12:12.817Z,99858.91
2022-12-27T23:14:40.928Z,99862.83
2022-12-27T23:17:09.444Z,99856.92
2022-12-27T23:19:37.782Z,99857.63
2022-12-27T23:22:06.423Z,99853.82
2022-12-27T23:24:34.477Z,99853.17
2022-12-27T23:27:03.481Z,99852.81
2022-12-27T23:29:31.653Z,99851.38
2022-12-27T23:31:59.691Z,99845.44
2022-12-27T23:34:29.176Z,99845.44
2022-12-27T23:36:58.925Z,99838.94
2022-12-27T23:39:27.782Z,99836.44
2022-12-27T23:41:56.114Z,99833.52
2022-12-27T23:44:33.721Z,99835.73
2022-12-27T23:47:05.511Z,99836.30
2022-12-27T23:49:34.465Z,99839.17
2022-12-27T23:52:03.325Z,99839.84
2022-12-27T23:54:31.812Z,99831.84
2022-12-27T23:57:22.624Z,99830.91
2022-12-27T23:59:49.472Z,99831.16
